»·PEaware :: N737UL KTIW-CYYJ

N737UL :: KTIW-CYYJ

FLIGHT INFORMATION

Flight Status: Arrived
Operator: Privately registered:
United States
More flights under this callsign
Pilot: Tom S. (20391)
Aircraft: CESSNA 172 SKYHAWK
(C172)
More flights by this aircraft type
Origin: KTIW Tacoma Narrows
United States
Destination: CYYJ Victoria Intl
Canada
More flights between these airports :: More routes between these airports
Route: CVV
File this flight plan on PilotEdge
Remarks: Will cancel IFR when crossing into Canadian airspace
Altitude:
(Current/Filed)
4,000ft
Speed:
(Current/Filed)
120kts
Departed: 15-Jun-20 09:05 AM
Arrived: 15-Jun-20 10:07 AM
Distance/Time
Traveled:
89nm/1:02
Distance/Time
To Go:
Arrived

Flight Plot

Page will automatically refresh every two minutes.


Map Options




Map Legend


Flown Route
Filed Route
Departure Airport
Arrival Airport
Navaid (VOR, NDB)
Fix

Horizontal Profiles

Position Reports

Time Latitude Longitude Heading Altitude Ground
Speed
15-Jun-20 09:03 47.491349 -122.612079 353 1584ft 124kts
15-Jun-20 09:04 47.525860 -122.617199 353 1584ft 124kts
15-Jun-20 09:05 47.560324 -122.622319 353 1584ft 124kts
15-Jun-20 09:06 47.594942 -122.627475 352 1615ft 122kts
15-Jun-20 09:07 47.625603 -122.632174 356 2238ft 106kts
15-Jun-20 09:08 47.654670 -122.635891 353 2836ft 104kts
15-Jun-20 09:09 47.678263 -122.639567 345 3671ft 68kts
15-Jun-20 09:10 47.700572 -122.644443 357 4027ft 96kts
15-Jun-20 09:11 47.730897 -122.646918 356 4000ft 115kts
15-Jun-20 09:12 47.763071 -122.651513 356 4001ft 116kts
15-Jun-20 09:13 47.794782 -122.656180 354 4002ft 110kts
15-Jun-20 09:14 47.811160 -122.658616 354 4003ft 109kts
15-Jun-20 09:15 47.841329 -122.663192 353 4005ft 109kts
15-Jun-20 09:16 47.871596 -122.667754 353 4005ft 109kts
15-Jun-20 09:18 47.901849 -122.672306 353 4005ft 109kts
15-Jun-20 09:19 47.932007 -122.676849 353 4004ft 109kts
15-Jun-20 09:20 47.962215 -122.681410 354 4004ft 109kts
15-Jun-20 09:21 47.992472 -122.685982 354 4004ft 109kts
15-Jun-20 09:22 48.022714 -122.690554 354 4003ft 108kts
15-Jun-20 09:23 48.052614 -122.695075 354 4000ft 107kts
15-Jun-20 09:24 48.082080 -122.699537 354 3998ft 105kts
15-Jun-20 09:25 48.110625 -122.703884 354 3998ft 105kts
15-Jun-20 09:26 48.139855 -122.708407 356 3994ft 111kts
15-Jun-20 09:27 48.171896 -122.713391 356 4005ft 119kts
15-Jun-20 09:28 48.205524 -122.718404 356 4005ft 122kts
15-Jun-20 09:29 48.239408 -122.723527 356 4005ft 122kts
15-Jun-20 09:30 48.273054 -122.730520 329 4001ft 123kts
15-Jun-20 09:31 48.283118 -122.776420 283 4006ft 119kts
15-Jun-20 09:32 48.300444 -122.819671 306 4006ft 122kts
15-Jun-20 09:33 48.322655 -122.858826 309 4005ft 122kts
15-Jun-20 09:33 48.341366 -122.891157 309 4002ft 122kts
15-Jun-20 09:35 48.367531 -122.936457 309 3994ft 122kts
15-Jun-20 09:35 48.386126 -122.968708 309 3989ft 122kts
15-Jun-20 09:36 48.408262 -123.007155 309 3985ft 121kts
15-Jun-20 09:38 48.434155 -123.052041 310 3981ft 121kts
15-Jun-20 09:38 48.452433 -123.083602 310 3979ft 121kts
15-Jun-20 09:39 48.477832 -123.127374 305 3049ft 146kts
15-Jun-20 09:40 48.503755 -123.174357 311 2004ft 146kts
15-Jun-20 09:41 48.527875 -123.214039 311 1648ft 112kts
15-Jun-20 09:42 48.547492 -123.251113 310 1540ft 113kts
15-Jun-20 09:43 48.569347 -123.284876 348 1530ft 112kts
15-Jun-20 09:44 48.589279 -123.257142 60 1541ft 103kts
15-Jun-20 09:45 48.603849 -123.219658 57 1542ft 103kts
15-Jun-20 09:46 48.630038 -123.230664 325 1543ft 113kts
15-Jun-20 09:47 48.655542 -123.258640 325 1543ft 113kts
15-Jun-20 09:48 48.680851 -123.286402 323 1543ft 112kts
15-Jun-20 09:49 48.685443 -123.332335 267 1543ft 114kts
15-Jun-20 09:50 48.685803 -123.380382 271 1543ft 113kts
15-Jun-20 09:51 48.697941 -123.423479 301 1543ft 112kts
15-Jun-20 09:52 48.712359 -123.460561 299 2146ft 96kts
15-Jun-20 09:53 48.725516 -123.494555 299 2830ft 91kts
15-Jun-20 09:54 48.737991 -123.526676 299 3514ft 85kts
15-Jun-20 09:55 48.754647 -123.568698 301 3096ft 124kts
15-Jun-20 09:56 48.770933 -123.610605 300 3098ft 110kts
15-Jun-20 09:57 48.759120 -123.642640 191 3101ft 105kts
15-Jun-20 09:58 48.735332 -123.652012 191 3097ft 105kts
15-Jun-20 09:59 48.703410 -123.665173 179 3100ft 103kts
15-Jun-20 10:00 48.688709 -123.632821 103 2877ft 110kts
15-Jun-20 10:01 48.679721 -123.586481 104 2371ft 116kts
15-Jun-20 10:02 48.670758 -123.538983 103 1795ft 111kts
15-Jun-20 10:03 48.662585 -123.495891 103 1180ft 104kts
15-Jun-20 10:04 48.656708 -123.462596 102 702ft 70kts
15-Jun-20 10:05 48.651485 -123.437561 104 93ft 47kts
15-Jun-20 10:06 48.648362 -123.425994 167 45ft 11kts
15-Jun-20 10:07 48.647147 -123.421824 134 54ft 13kts
15-Jun-20 10:08 48.645152 -123.421927 7 51ft 2kts

Navigation Log

Ident Type
Flight plan parsing failed, navigation log unavailable